createdAt,value
2022-12-18T00:00:43.408Z,23.08
2022-12-18T00:01:34.336Z,21.80
2022-12-18T00:02:21.478Z,21.30
2022-12-18T00:03:08.556Z,22.05
2022-12-18T00:03:56.754Z,23.30
2022-12-18T00:04:43.821Z,21.75
2022-12-18T00:05:30.706Z,22.17
2022-12-18T00:06:17.861Z,21.35
2022-12-18T00:07:04.749Z,20.85
2022-12-18T00:07:54.450Z,20.92
2022-12-18T00:08:42.426Z,21.23
2022-12-18T00:09:39.306Z,22.33
2022-12-18T00:10:26.931Z,22.00
2022-12-18T00:11:18.816Z,23.05
2022-12-18T00:13:05.279Z,20.95
2022-12-18T00:13:58.067Z,21.92
2022-12-18T00:14:45.010Z,21.23
2022-12-18T00:15:31.970Z,22.27
2022-12-18T00:16:22.072Z,21.65
2022-12-18T00:17:09.072Z,24.75
2022-12-18T00:17:56.077Z,22.77
2022-12-18T00:18:43.689Z,23.33
2022-12-18T00:19:30.652Z,21.67
2022-12-18T00:20:21.985Z,21.92
2022-12-18T00:21:11.377Z,23.25
2022-12-18T00:21:59.486Z,22.30
2022-12-18T00:22:46.451Z,23.00
2022-12-18T00:23:36.678Z,23.45
2022-12-18T00:24:23.890Z,21.52
2022-12-18T00:25:10.786Z,23.67
2022-12-18T00:26:06.216Z,22.70
2022-12-18T00:26:53.168Z,21.98
2022-12-18T00:27:40.030Z,21.67
2022-12-18T00:28:26.988Z,23.73
2022-12-18T00:29:15.126Z,23.15
2022-12-18T00:30:02.072Z,21.70
2022-12-18T00:30:52.577Z,23.27
2022-12-18T00:31:39.808Z,23.55
2022-12-18T00:32:26.790Z,24.33
2022-12-18T00:33:13.699Z,23.27
2022-12-18T00:34:00.639Z,22.70
2022-12-18T00:34:47.517Z,25.33
2022-12-18T00:35:34.407Z,22.55
2022-12-18T00:36:24.270Z,23.10
2022-12-18T00:37:14.429Z,23.77
2022-12-18T00:38:04.065Z,23.15
2022-12-18T00:38:51.157Z,23.70
2022-12-18T00:39:38.070Z,23.50
2022-12-18T00:40:24.937Z,25.52
2022-12-18T00:41:13.140Z,23.42
2022-12-18T00:42:18.596Z,24.08
2022-12-18T00:43:05.556Z,23.08
2022-12-18T00:43:52.443Z,24.63
2022-12-18T00:44:39.416Z,22.67
2022-12-18T00:45:28.554Z,24.87
2022-12-18T00:46:15.524Z,23.17
2022-12-18T00:47:02.528Z,23.23
2022-12-18T00:47:49.527Z,25.00
2022-12-18T00:48:36.495Z,23.55
2022-12-18T00:49:23.388Z,23.67
2022-12-18T00:50:10.677Z,24.58
2022-12-18T00:50:57.532Z,24.23
2022-12-18T00:51:44.965Z,23.55
2022-12-18T00:52:31.867Z,23.65
2022-12-18T00:53:19.246Z,24.27
2022-12-18T00:54:06.818Z,22.90
2022-12-18T00:54:53.694Z,22.58
2022-12-18T00:55:41.242Z,22.98
2022-12-18T00:56:28.327Z,21.98
2022-12-18T00:57:15.280Z,22.92
2022-12-18T00:58:02.237Z,22.67
2022-12-18T00:58:49.386Z,22.10
2022-12-18T00:59:36.334Z,22.75
2022-12-18T01:00:23.643Z,21.95
2022-12-18T01:01:10.652Z,22.10
2022-12-18T01:01:57.654Z,22.80
2022-12-18T01:02:44.715Z,21.87
2022-12-18T01:03:31.989Z,22.67
2022-12-18T01:04:18.897Z,22.30
2022-12-18T01:05:06.195Z,23.02
2022-12-18T01:05:53.126Z,22.62
2022-12-18T01:06:40.203Z,22.00
2022-12-18T01:07:27.114Z,24.23
2022-12-18T01:08:14.033Z,22.33
2022-12-18T01:09:00.947Z,23.25
2022-12-18T01:09:47.802Z,22.83
2022-12-18T01:10:34.899Z,23.73
2022-12-18T01:11:22.567Z,25.40
2022-12-18T01:12:09.456Z,24.00
2022-12-18T01:12:56.917Z,24.12
2022-12-18T01:13:44.221Z,24.45
2022-12-18T01:14:31.098Z,26.52
2022-12-18T01:15:18.709Z,25.02
2022-12-18T01:16:05.965Z,24.42
2022-12-18T01:16:52.983Z,25.48
2022-12-18T01:17:39.989Z,24.20
2022-12-18T01:18:26.886Z,24.70
2022-12-18T01:19:13.949Z,25.02
2022-12-18T01:20:00.850Z,24.15
2022-12-18T01:20:47.778Z,21.85
2022-12-18T01:21:34.824Z,21.48
2022-12-18T01:22:21.936Z,22.70
2022-12-18T01:23:08.857Z,23.35
2022-12-18T01:23:57.625Z,22.17
2022-12-18T01:24:44.616Z,21.17
2022-12-18T01:25:31.476Z,22.05
2022-12-18T01:26:18.330Z,21.87
2022-12-18T01:27:05.417Z,21.85
2022-12-18T01:27:52.526Z,21.15
2022-12-18T01:28:41.099Z,21.65
2022-12-18T01:29:28.117Z,23.27
2022-12-18T01:30:15.037Z,21.45
2022-12-18T01:31:25.751Z,22.60
2022-12-18T01:32:12.695Z,22.62
2022-12-18T01:32:59.595Z,22.77
2022-12-18T01:33:46.828Z,21.77
2022-12-18T01:34:33.782Z,23.73
2022-12-18T01:35:21.008Z,23.00
2022-12-18T01:36:08.265Z,21.60
2022-12-18T01:36:55.186Z,20.35
2022-12-18T01:37:42.085Z,21.10
2022-12-18T01:38:30.039Z,20.17
2022-12-18T01:39:16.909Z,22.95
2022-12-18T01:40:04.266Z,22.20
2022-12-18T01:40:58.913Z,20.88
2022-12-18T01:42:04.182Z,21.30
2022-12-18T01:42:54.628Z,21.00
2022-12-18T01:43:58.569Z,21.27
2022-12-18T01:44:57.509Z,20.37
2022-12-18T01:45:44.451Z,20.12
2022-12-18T01:46:31.406Z,21.52
2022-12-18T01:47:25.288Z,21.75
2022-12-18T01:48:12.287Z,21.25
2022-12-18T01:49:01.610Z,21.83
2022-12-18T01:49:48.737Z,20.90
2022-12-18T01:50:43.476Z,21.70
2022-12-18T01:51:31.580Z,22.05
2022-12-18T01:52:19.087Z,22.92
2022-12-18T01:53:11.809Z,22.08
2022-12-18T01:53:59.371Z,20.15
2022-12-18T01:54:46.998Z,20.95
2022-12-18T01:55:46.918Z,21.42
2022-12-18T01:56:33.848Z,21.02
2022-12-18T01:57:21.237Z,21.75
2022-12-18T01:58:08.257Z,22.35
2022-12-18T01:59:14.558Z,21.52
2022-12-18T02:00:05.550Z,20.95
2022-12-18T02:00:52.658Z,20.55
2022-12-18T02:01:39.703Z,20.73
2022-12-18T02:02:28.589Z,21.23
2022-12-18T02:03:15.692Z,21.25
2022-12-18T02:04:24.857Z,21.83
2022-12-18T02:05:13.334Z,20.92
2022-12-18T02:06:36.218Z,21.33
2022-12-18T02:07:48.607Z,20.10
2022-12-18T02:08:51.957Z,18.62
2022-12-18T02:09:48.177Z,20.55
2022-12-18T02:10:48.608Z,20.42
2022-12-18T02:12:04.767Z,20.15
2022-12-18T02:13:28.267Z,19.25
2022-12-18T02:14:33.476Z,21.87
2022-12-18T02:15:24.768Z,18.87
2022-12-18T02:16:30.419Z,20.70
2022-12-18T02:17:23.915Z,20.90
2022-12-18T02:18:20.630Z,21.83
2022-12-18T02:19:30.405Z,19.67
2022-12-18T02:20:23.289Z,21.52
2022-12-18T02:21:31.437Z,19.85
2022-12-18T02:22:21.247Z,20.65
2022-12-18T02:23:14.188Z,20.35
2022-12-18T02:24:15.337Z,19.67
2022-12-18T02:25:28.346Z,21.17
2022-12-18T02:26:39.186Z,20.33
2022-12-18T02:27:26.226Z,20.77
2022-12-18T02:28:15.190Z,21.52
2022-12-18T02:29:05.188Z,19.98
2022-12-18T02:29:58.206Z,22.02
2022-12-18T02:30:46.712Z,20.67
2022-12-18T02:31:39.366Z,20.02
2022-12-18T02:32:30.145Z,21.42
2022-12-18T02:33:17.398Z,21.48
2022-12-18T02:34:06.305Z,21.75
2022-12-18T02:34:54.576Z,23.58
2022-12-18T02:35:42.556Z,22.37
2022-12-18T02:36:30.218Z,21.60
2022-12-18T02:37:19.361Z,22.02
2022-12-18T02:38:06.547Z,22.13
2022-12-18T02:38:53.867Z,21.60
2022-12-18T02:39:43.571Z,23.62
2022-12-18T02:40:30.726Z,21.60
2022-12-18T02:41:18.246Z,21.10
2022-12-18T02:42:09.182Z,21.17
2022-12-18T02:42:56.266Z,22.83
2022-12-18T02:43:48.720Z,21.67
2022-12-18T02:44:37.497Z,20.85
2022-12-18T02:45:24.426Z,22.92
2022-12-18T02:46:30.406Z,20.77
2022-12-18T02:47:20.961Z,22.80
2022-12-18T02:48:09.405Z,22.10
2022-12-18T02:49:32.476Z,22.45
2022-12-18T02:50:38.876Z,20.20
2022-12-18T02:51:31.106Z,19.37
2022-12-18T02:52:36.614Z,20.50
2022-12-18T02:53:31.967Z,20.52
2022-12-18T02:54:47.352Z,22.05
2022-12-18T02:55:46.789Z,20.27
2022-12-18T02:56:40.788Z,22.20
2022-12-18T02:57:55.547Z,22.05
2022-12-18T02:58:54.396Z,21.42
2022-12-18T02:59:49.847Z,20.05
2022-12-18T03:00:44.598Z,21.83
2022-12-18T03:01:43.220Z,21.40
2022-12-18T03:02:38.699Z,21.58
2022-12-18T03:03:50.567Z,21.30
2022-12-18T03:04:45.384Z,20.62
2022-12-18T03:05:40.267Z,19.83
2022-12-18T03:06:44.167Z,20.42
2022-12-18T03:08:02.337Z,22.83
2022-12-18T03:08:54.216Z,21.33
2022-12-18T03:09:45.345Z,21.00
2022-12-18T03:10:34.940Z,21.37
2022-12-18T03:11:41.826Z,20.98
2022-12-18T03:12:37.642Z,20.88
2022-12-18T03:13:53.317Z,19.62
2022-12-18T03:14:41.966Z,21.33
2022-12-18T03:15:49.527Z,20.67
2022-12-18T03:16:38.090Z,20.92
2022-12-18T03:17:27.025Z,21.45
2022-12-18T03:18:18.734Z,21.70
2022-12-18T03:19:09.587Z,21.85
2022-12-18T03:19:58.537Z,21.27
2022-12-18T03:20:48.946Z,21.58
2022-12-18T03:21:42.700Z,22.52
2022-12-18T03:22:31.697Z,20.00
2022-12-18T03:23:25.938Z,20.52
2022-12-18T03:24:13.277Z,21.08
2022-12-18T03:25:01.965Z,21.95
2022-12-18T03:25:50.635Z,21.75
2022-12-18T03:26:38.906Z,21.42
2022-12-18T03:27:26.775Z,22.20
2022-12-18T03:28:16.867Z,22.70
2022-12-18T03:29:08.246Z,21.55
2022-12-18T03:30:11.487Z,21.15
2022-12-18T03:31:00.242Z,21.73
2022-12-18T03:31:53.346Z,21.20
2022-12-18T03:32:43.816Z,21.08
2022-12-18T03:33:39.791Z,21.75
2022-12-18T03:34:31.685Z,22.08
2022-12-18T03:35:23.887Z,20.92
2022-12-18T03:36:10.946Z,21.92
2022-12-18T03:36:57.948Z,21.98
2022-12-18T03:37:44.857Z,21.83
2022-12-18T03:38:31.763Z,22.40
2022-12-18T03:39:18.690Z,22.73
2022-12-18T03:40:06.917Z,22.10
2022-12-18T03:41:05.785Z,23.48
2022-12-18T03:41:56.822Z,20.37
2022-12-18T03:42:55.974Z,22.35
2022-12-18T03:44:05.563Z,21.35
2022-12-18T03:45:09.870Z,19.92
2022-12-18T03:46:10.519Z,21.20
2022-12-18T03:47:08.259Z,21.37
2022-12-18T03:48:00.493Z,23.02
2022-12-18T03:48:59.054Z,21.10
2022-12-18T03:50:13.030Z,22.37
2022-12-18T03:51:19.595Z,21.23
2022-12-18T03:52:21.746Z,20.52
2022-12-18T03:53:30.047Z,23.20
2022-12-18T03:54:18.039Z,22.10
2022-12-18T03:55:06.849Z,22.55
2022-12-18T03:55:54.220Z,22.40
2022-12-18T03:56:44.342Z,21.85
2022-12-18T03:57:32.909Z,21.85
2022-12-18T03:58:24.109Z,21.50
2022-12-18T03:59:11.737Z,22.65
2022-12-18T04:00:02.115Z,22.20
2022-12-18T04:00:52.162Z,21.48
2022-12-18T04:01:43.313Z,20.67
2022-12-18T04:02:31.983Z,20.73
2022-12-18T04:03:23.984Z,22.13
2022-12-18T04:04:14.462Z,22.15
2022-12-18T04:05:04.871Z,21.20
2022-12-18T04:05:52.783Z,22.35
2022-12-18T04:07:28.303Z,21.75
2022-12-18T04:08:15.473Z,22.73
2022-12-18T04:09:02.738Z,21.55
2022-12-18T04:09:50.662Z,21.80
2022-12-18T04:10:38.192Z,22.75
2022-12-18T04:11:25.415Z,22.98
2022-12-18T04:12:12.382Z,21.73
2022-12-18T04:12:59.546Z,21.85
2022-12-18T04:13:46.594Z,22.65
2022-12-18T04:14:36.788Z,22.25
2022-12-18T04:15:23.787Z,21.42
2022-12-18T04:16:10.801Z,20.20
2022-12-18T04:16:57.867Z,22.75
2022-12-18T04:17:49.931Z,21.55
2022-12-18T04:18:37.256Z,22.55
2022-12-18T04:19:24.224Z,22.30
2022-12-18T04:20:11.661Z,22.77
2022-12-18T04:20:58.705Z,21.73
2022-12-18T04:21:45.677Z,23.77
2022-12-18T04:22:32.598Z,22.83
2022-12-18T04:23:19.733Z,21.67
2022-12-18T04:24:06.969Z,22.42
2022-12-18T04:24:53.865Z,22.48
2022-12-18T04:25:40.815Z,21.85
2022-12-18T04:26:27.837Z,21.60
2022-12-18T04:27:15.194Z,21.67
2022-12-18T04:28:02.099Z,22.50
2022-12-18T04:28:49.150Z,23.87
2022-12-18T04:29:36.149Z,23.33
2022-12-18T04:30:23.094Z,22.60
2022-12-18T04:31:10.063Z,20.92
2022-12-18T04:31:57.186Z,20.73
2022-12-18T04:32:49.057Z,23.85
2022-12-18T04:33:39.294Z,22.23
2022-12-18T04:34:26.628Z,22.02
2022-12-18T04:35:13.541Z,22.17
2022-12-18T04:36:00.588Z,23.58
2022-12-18T04:36:47.548Z,21.60
2022-12-18T04:37:34.666Z,23.20
2022-12-18T04:38:21.687Z,20.48
2022-12-18T04:39:08.695Z,21.70
2022-12-18T04:39:55.656Z,22.23
2022-12-18T04:40:42.625Z,21.25
2022-12-18T04:41:30.099Z,21.17
2022-12-18T04:42:17.028Z,23.17
2022-12-18T04:43:04.805Z,22.40
2022-12-18T04:43:51.738Z,21.05
2022-12-18T04:44:38.734Z,22.10
2022-12-18T04:45:25.657Z,22.17
2022-12-18T04:46:12.694Z,20.62
2022-12-18T04:46:59.824Z,22.50
2022-12-18T04:47:46.881Z,23.73
2022-12-18T04:48:34.292Z,23.10
2022-12-18T04:49:21.279Z,22.95
2022-12-18T04:50:08.718Z,22.77
2022-12-18T04:50:58.146Z,22.73
2022-12-18T04:51:45.047Z,21.45
2022-12-18T04:52:34.856Z,22.35
2022-12-18T04:53:21.832Z,21.83
2022-12-18T04:54:08.773Z,22.35
2022-12-18T04:54:55.731Z,21.73
2022-12-18T04:55:42.751Z,21.23
2022-12-18T04:56:29.784Z,21.20
2022-12-18T04:57:16.731Z,20.80
2022-12-18T04:58:03.766Z,21.42
2022-12-18T04:58:50.897Z,21.90
2022-12-18T04:59:37.872Z,21.80
2022-12-18T05:00:24.997Z,20.35
2022-12-18T05:01:14.172Z,21.10
2022-12-18T05:02:01.368Z,21.10
2022-12-18T05:02:48.639Z,22.30
2022-12-18T05:03:36.308Z,22.33
2022-12-18T05:04:23.315Z,22.65
2022-12-18T05:05:10.554Z,22.95
2022-12-18T05:05:57.478Z,21.95
2022-12-18T05:06:44.487Z,21.83
2022-12-18T05:07:31.615Z,22.02
2022-12-18T05:08:18.966Z,22.75
2022-12-18T05:09:06.967Z,21.15
2022-12-18T05:09:53.969Z,22.73
2022-12-18T05:10:41.027Z,23.10
2022-12-18T05:11:28.659Z,22.67
2022-12-18T05:12:15.716Z,22.25
2022-12-18T05:13:04.943Z,22.30
2022-12-18T05:13:51.854Z,20.95
2022-12-18T05:14:38.805Z,23.02
2022-12-18T05:15:30.636Z,22.02
2022-12-18T05:16:17.709Z,20.92
2022-12-18T05:17:04.774Z,22.17
2022-12-18T05:17:51.747Z,22.52
2022-12-18T05:18:39.176Z,21.98
2022-12-18T05:19:26.608Z,22.20
2022-12-18T05:20:13.557Z,21.80
2022-12-18T05:21:00.661Z,22.02
2022-12-18T05:21:47.600Z,22.35
2022-12-18T05:22:34.548Z,20.92
2022-12-18T05:23:22.821Z,21.52
2022-12-18T05:24:09.785Z,22.25
2022-12-18T05:24:56.833Z,21.25
2022-12-18T05:25:43.810Z,22.00
2022-12-18T05:26:32.001Z,22.77
2022-12-18T05:27:20.587Z,23.27
2022-12-18T05:28:07.631Z,22.33
2022-12-18T05:28:54.609Z,22.42
2022-12-18T05:29:41.517Z,20.90
2022-12-18T05:30:28.905Z,22.05
2022-12-18T05:31:16.132Z,22.55
2022-12-18T05:32:03.170Z,20.95
2022-12-18T05:32:50.115Z,23.30
2022-12-18T05:33:37.808Z,21.83
2022-12-18T05:34:25.136Z,21.45
2022-12-18T05:35:12.548Z,21.62
2022-12-18T05:36:04.305Z,22.95
2022-12-18T05:36:51.197Z,22.67
2022-12-18T05:37:42.926Z,23.02
2022-12-18T05:38:31.349Z,22.25
2022-12-18T05:39:18.615Z,22.73
2022-12-18T05:40:06.190Z,22.92
2022-12-18T05:40:53.824Z,22.27
2022-12-18T05:41:40.732Z,21.87
2022-12-18T05:42:28.534Z,22.90
2022-12-18T05:43:20.930Z,22.73
2022-12-18T05:44:08.259Z,22.95
2022-12-18T05:44:55.272Z,24.35
2022-12-18T05:45:42.854Z,21.83
2022-12-18T05:46:30.673Z,23.30
2022-12-18T05:47:18.129Z,22.77
2022-12-18T05:48:05.656Z,21.95
2022-12-18T05:48:53.070Z,22.33
2022-12-18T05:49:40.095Z,21.27
2022-12-18T05:50:27.020Z,22.10
2022-12-18T05:51:19.007Z,21.62
2022-12-18T05:52:06.102Z,23.05
2022-12-18T05:52:52.970Z,23.10
2022-12-18T05:53:40.304Z,21.60
2022-12-18T05:54:30.412Z,22.48
2022-12-18T05:55:17.423Z,18.55
2022-12-18T05:56:06.942Z,22.40
2022-12-18T05:56:53.950Z,22.45
2022-12-18T05:57:40.888Z,21.30
2022-12-18T05:58:27.791Z,21.27
2022-12-18T05:59:14.748Z,23.40
2022-12-18T06:00:01.735Z,23.38
2022-12-18T06:00:48.785Z,23.00
2022-12-18T06:01:35.895Z,22.58
2022-12-18T06:02:23.101Z,25.02
2022-12-18T06:03:11.785Z,22.17
2022-12-18T06:03:58.902Z,22.65
2022-12-18T06:04:45.894Z,23.80
2022-12-18T06:05:37.957Z,23.12
2022-12-18T06:06:27.737Z,21.10
2022-12-18T06:07:14.663Z,27.02
2022-12-18T06:08:01.596Z,21.42
2022-12-18T06:08:48.945Z,23.52
2022-12-18T06:09:36.069Z,21.45
2022-12-18T06:10:23.058Z,23.00
2022-12-18T06:11:10.214Z,22.75
2022-12-18T06:11:57.142Z,23.25
2022-12-18T06:12:44.115Z,22.05
2022-12-18T06:13:31.124Z,23.73
2022-12-18T06:14:18.593Z,24.27
2022-12-18T06:15:06.112Z,23.27
2022-12-18T06:15:53.199Z,22.90
2022-12-18T06:16:40.468Z,21.10
2022-12-18T06:17:34.633Z,22.35
2022-12-18T06:18:21.537Z,23.67
2022-12-18T06:19:08.573Z,23.55
2022-12-18T06:19:55.574Z,21.42
2022-12-18T06:20:42.739Z,22.60
2022-12-18T06:21:30.224Z,25.23
2022-12-18T06:22:18.141Z,23.17
2022-12-18T06:23:05.079Z,23.73
2022-12-18T06:23:52.056Z,23.12
2022-12-18T06:24:38.995Z,24.42
2022-12-18T06:25:25.905Z,25.50
2022-12-18T06:26:14.221Z,22.73
2022-12-18T06:27:01.172Z,24.27
2022-12-18T06:27:49.459Z,22.48
2022-12-18T06:28:36.572Z,24.70
2022-12-18T06:29:23.517Z,23.05
2022-12-18T06:30:11.373Z,24.17
2022-12-18T06:30:58.430Z,24.25
2022-12-18T06:31:45.415Z,23.00
2022-12-18T06:32:32.546Z,24.48
2022-12-18T06:33:19.705Z,23.38
2022-12-18T06:34:06.688Z,22.90
2022-12-18T06:34:54.483Z,25.20
2022-12-18T06:35:41.744Z,24.42
2022-12-18T06:36:31.497Z,22.95
2022-12-18T06:37:18.513Z,25.02
2022-12-18T06:38:05.830Z,23.62
2022-12-18T06:38:52.856Z,23.25
2022-12-18T06:39:39.748Z,22.70
2022-12-18T06:40:26.670Z,23.87
2022-12-18T06:41:18.984Z,23.33
2022-12-18T06:42:06.315Z,24.10
2022-12-18T06:42:53.303Z,22.35
2022-12-18T06:43:41.674Z,23.15
2022-12-18T06:44:29.094Z,23.62
2022-12-18T06:45:16.264Z,23.45
2022-12-18T06:46:04.488Z,24.00
2022-12-18T06:46:51.475Z,23.40
2022-12-18T06:47:38.346Z,23.67
2022-12-18T06:48:25.301Z,23.98
2022-12-18T06:49:12.476Z,24.20
2022-12-18T06:50:00.614Z,24.77
2022-12-18T06:50:47.647Z,24.55
2022-12-18T06:51:34.686Z,25.17
2022-12-18T06:52:21.847Z,23.65
2022-12-18T06:53:08.856Z,25.60
2022-12-18T06:53:55.861Z,24.73
2022-12-18T06:54:42.855Z,26.23
2022-12-18T06:55:29.968Z,23.35
2022-12-18T06:56:17.296Z,25.08
2022-12-18T06:57:04.310Z,24.33
2022-12-18T06:57:51.356Z,25.27
2022-12-18T06:58:39.382Z,25.33
2022-12-18T06:59:26.448Z,23.77
2022-12-18T07:00:15.211Z,26.27
2022-12-18T07:01:04.053Z,24.48
2022-12-18T07:02:13.957Z,25.48
2022-12-18T07:03:01.025Z,24.83
2022-12-18T07:03:48.228Z,24.55
2022-12-18T07:04:35.229Z,25.62
2022-12-18T07:05:22.190Z,24.05
2022-12-18T07:06:16.315Z,25.77
2022-12-18T07:07:03.243Z,23.55
2022-12-18T07:07:50.164Z,24.20
2022-12-18T07:08:37.107Z,24.45
2022-12-18T07:09:24.309Z,23.48
2022-12-18T07:10:11.770Z,24.80
2022-12-18T07:10:58.852Z,24.55
2022-12-18T07:11:45.888Z,25.08
2022-12-18T07:12:32.851Z,24.98
2022-12-18T07:13:19.751Z,24.08
2022-12-18T07:14:06.771Z,23.75
2022-12-18T07:14:53.682Z,25.15
2022-12-18T07:15:40.579Z,25.08
2022-12-18T07:16:29.594Z,25.40
2022-12-18T07:17:16.609Z,24.33
2022-12-18T07:18:03.719Z,24.30
2022-12-18T07:18:50.801Z,25.98
2022-12-18T07:19:37.898Z,23.80
2022-12-18T07:20:24.886Z,26.15
2022-12-18T07:21:14.962Z,25.55
2022-12-18T07:22:02.062Z,18.65
2022-12-18T07:22:54.726Z,25.77
2022-12-18T07:23:43.404Z,24.42
2022-12-18T07:24:30.413Z,25.65
2022-12-18T07:25:17.264Z,25.10
2022-12-18T07:26:13.653Z,24.55
2022-12-18T07:27:00.679Z,24.23
2022-12-18T07:27:47.656Z,24.55
2022-12-18T07:28:35.069Z,25.73
2022-12-18T07:29:22.094Z,25.67
2022-12-18T07:30:10.049Z,26.08
2022-12-18T07:30:57.235Z,26.05
2022-12-18T07:31:44.302Z,24.58
2022-12-18T07:32:31.971Z,24.30
2022-12-18T07:33:19.070Z,27.55
2022-12-18T07:34:06.177Z,27.23
2022-12-18T07:34:53.186Z,26.65
2022-12-18T07:35:40.297Z,27.05
2022-12-18T07:36:27.327Z,25.90
2022-12-18T07:37:14.245Z,24.85
2022-12-18T07:38:03.033Z,25.55
2022-12-18T07:38:50.968Z,25.10
2022-12-18T07:39:37.906Z,25.55
2022-12-18T07:40:24.791Z,27.83
2022-12-18T07:41:13.706Z,25.23
2022-12-18T07:42:19.168Z,24.52
2022-12-18T07:43:06.120Z,26.37
2022-12-18T07:43:53.104Z,26.85
2022-12-18T07:44:40.317Z,27.13
2022-12-18T07:45:27.239Z,24.85
2022-12-18T07:46:15.894Z,26.05
2022-12-18T07:47:05.542Z,24.77
2022-12-18T07:47:54.628Z,28.20
2022-12-18T07:48:42.680Z,26.62
2022-12-18T07:49:30.351Z,25.80
2022-12-18T07:50:17.413Z,25.42
2022-12-18T07:51:06.751Z,25.40
2022-12-18T07:51:56.136Z,26.83
2022-12-18T07:52:43.090Z,24.45
2022-12-18T07:53:30.291Z,26.12
2022-12-18T07:54:17.256Z,25.35
2022-12-18T07:55:04.768Z,25.40
2022-12-18T07:56:25.589Z,25.37
2022-12-18T07:57:16.480Z,25.08
2022-12-18T07:58:12.825Z,24.80
2022-12-18T07:59:00.742Z,24.90
2022-12-18T07:59:47.796Z,26.35
2022-12-18T08:00:34.876Z,24.42
2022-12-18T08:01:21.995Z,27.33
2022-12-18T08:02:09.286Z,26.50
2022-12-18T08:02:56.483Z,27.87
2022-12-18T08:03:43.546Z,25.75
2022-12-18T08:04:30.529Z,27.73
2022-12-18T08:05:17.521Z,26.60
2022-12-18T08:06:06.011Z,27.17
2022-12-18T08:06:53.461Z,26.33
2022-12-18T08:07:40.808Z,25.92
2022-12-18T08:08:27.755Z,25.67
2022-12-18T08:09:14.653Z,26.52
2022-12-18T08:10:01.489Z,26.30
2022-12-18T08:10:48.468Z,25.95
2022-12-18T08:11:35.345Z,24.60
2022-12-18T08:12:22.205Z,25.62
2022-12-18T08:13:09.020Z,26.50
2022-12-18T08:13:56.208Z,25.95
2022-12-18T08:14:43.073Z,26.42
2022-12-18T08:15:29.989Z,26.05
2022-12-18T08:16:17.340Z,26.90
2022-12-18T08:17:04.331Z,27.02
2022-12-18T08:17:51.333Z,26.73
2022-12-18T08:18:40.976Z,26.23
2022-12-18T08:19:27.847Z,27.95
2022-12-18T08:20:19.473Z,25.73
2022-12-18T08:21:13.229Z,27.70
2022-12-18T08:22:00.086Z,26.85
2022-12-18T08:22:46.969Z,26.40
2022-12-18T08:23:35.928Z,29.23
2022-12-18T08:24:26.845Z,28.17
2022-12-18T08:25:13.698Z,27.90
2022-12-18T08:26:00.579Z,28.02
2022-12-18T08:27:06.821Z,26.95
2022-12-18T08:27:55.015Z,26.15
2022-12-18T08:28:42.116Z,28.92
2022-12-18T08:29:29.327Z,28.62
2022-12-18T08:30:16.431Z,27.73
2022-12-18T08:31:03.518Z,29.15
2022-12-18T08:31:50.865Z,29.25
2022-12-18T08:32:37.822Z,28.73
2022-12-18T08:33:25.639Z,27.87
2022-12-18T08:34:12.580Z,27.62
2022-12-18T08:34:59.837Z,27.37
2022-12-18T08:35:46.706Z,29.48
2022-12-18T08:36:33.667Z,29.70
2022-12-18T08:37:20.784Z,28.08
2022-12-18T08:38:07.721Z,31.08
2022-12-18T08:38:55.149Z,29.35
2022-12-18T08:39:42.040Z,29.80
2022-12-18T08:40:28.886Z,28.67
2022-12-18T08:41:17.097Z,29.33
2022-12-18T08:42:22.715Z,28.40
2022-12-18T08:43:29.691Z,29.25
2022-12-18T08:44:35.254Z,28.62
2022-12-18T08:45:22.175Z,27.75
2022-12-18T08:46:09.049Z,27.73
2022-12-18T08:46:55.979Z,30.45
2022-12-18T08:47:42.916Z,30.60
2022-12-18T08:48:29.837Z,32.72
2022-12-18T08:49:16.763Z,32.20
2022-12-18T08:50:03.923Z,32.25
2022-12-18T08:51:00.635Z,32.10
2022-12-18T08:51:47.611Z,37.75
2022-12-18T08:52:34.570Z,35.33
2022-12-18T08:53:21.494Z,34.65
2022-12-18T08:54:08.444Z,35.88
2022-12-18T08:54:55.304Z,35.38
2022-12-18T08:55:45.838Z,35.70
2022-12-18T08:56:36.917Z,37.38
2022-12-18T08:57:23.813Z,37.05
2022-12-18T08:58:13.636Z,35.20
2022-12-18T08:59:00.839Z,30.23
2022-12-18T08:59:49.458Z,37.22
2022-12-18T09:00:36.362Z,38.05
2022-12-18T09:01:23.895Z,40.50
2022-12-18T09:02:12.302Z,35.63
2022-12-18T09:02:59.558Z,38.30
2022-12-18T09:03:46.533Z,38.38
2022-12-18T09:04:33.570Z,38.30
2022-12-18T09:05:20.524Z,38.97
2022-12-18T09:06:07.801Z,39.53
2022-12-18T09:06:57.689Z,38.00
2022-12-18T09:07:45.045Z,29.67
2022-12-18T09:08:35.566Z,38.38
2022-12-18T09:09:22.559Z,31.42
2022-12-18T09:10:09.635Z,40.45
2022-12-18T09:10:56.730Z,40.22
2022-12-18T09:11:43.883Z,42.85
2022-12-18T09:12:30.805Z,39.45
2022-12-18T09:13:18.652Z,38.33
2022-12-18T09:14:05.745Z,39.65
2022-12-18T09:14:53.522Z,39.97
2022-12-18T09:15:49.803Z,39.38
2022-12-18T09:16:37.038Z,37.85
2022-12-18T09:17:24.104Z,38.15
2022-12-18T09:18:11.428Z,39.80
2022-12-18T09:19:00.943Z,39.58
2022-12-18T09:19:48.076Z,37.35
2022-12-18T09:20:35.331Z,35.08
2022-12-18T09:21:22.861Z,35.63
2022-12-18T09:22:10.814Z,36.25
2022-12-18T09:22:58.072Z,37.08
2022-12-18T09:23:45.050Z,36.63
2022-12-18T09:24:32.013Z,35.03
2022-12-18T09:25:19.076Z,34.72
2022-12-18T09:26:06.136Z,33.60
2022-12-18T09:26:58.056Z,34.80
2022-12-18T09:27:48.549Z,35.13
2022-12-18T09:28:35.533Z,35.13
2022-12-18T09:29:22.472Z,35.88
2022-12-18T09:30:10.199Z,34.95
2022-12-18T09:30:57.322Z,36.90
2022-12-18T09:31:44.286Z,34.50
2022-12-18T09:32:31.718Z,34.42
2022-12-18T09:33:19.219Z,36.70
2022-12-18T09:34:06.481Z,35.05
2022-12-18T09:34:53.970Z,34.88
2022-12-18T09:35:42.268Z,37.75
2022-12-18T09:36:29.226Z,34.78
2022-12-18T09:37:16.170Z,33.65
2022-12-18T09:38:04.789Z,35.97
2022-12-18T09:38:51.797Z,34.58
2022-12-18T09:39:39.608Z,33.55
2022-12-18T09:40:30.609Z,31.98
2022-12-18T09:41:42.422Z,32.53
2022-12-18T09:42:29.656Z,31.40
2022-12-18T09:43:23.002Z,31.70
2022-12-18T09:44:20.744Z,34.47
2022-12-18T09:45:13.897Z,32.03
2022-12-18T09:46:04.467Z,31.75
2022-12-18T09:47:18.548Z,33.72
2022-12-18T09:48:08.317Z,31.17
2022-12-18T09:49:00.596Z,32.15
2022-12-18T09:49:50.748Z,29.95
2022-12-18T09:50:40.597Z,31.67
2022-12-18T09:51:39.214Z,30.33
2022-12-18T09:52:30.122Z,32.47
2022-12-18T09:53:21.289Z,31.70
2022-12-18T09:54:14.232Z,31.30
2022-12-18T09:55:03.885Z,32.78
2022-12-18T09:55:52.453Z,34.42
2022-12-18T09:56:42.371Z,34.40
2022-12-18T09:57:32.675Z,33.95
2022-12-18T09:58:37.315Z,32.72
2022-12-18T09:59:31.302Z,35.25
2022-12-18T10:00:21.722Z,33.35
2022-12-18T10:01:13.679Z,33.15
2022-12-18T10:02:00.987Z,32.65
2022-12-18T10:02:49.052Z,33.75
2022-12-18T10:03:36.107Z,34.03
2022-12-18T10:04:23.151Z,33.95
2022-12-18T10:05:16.172Z,33.95
2022-12-18T10:06:16.103Z,33.47
2022-12-18T10:07:10.841Z,26.60
2022-12-18T10:08:06.385Z,31.92
2022-12-18T10:08:59.249Z,29.85
2022-12-18T10:09:55.287Z,32.83
2022-12-18T10:10:49.297Z,33.97
2022-12-18T10:11:42.541Z,32.15
2022-12-18T10:12:40.562Z,33.72
2022-12-18T10:13:47.883Z,34.90
2022-12-18T10:14:48.686Z,36.17
2022-12-18T10:16:43.374Z,32.38
2022-12-18T10:17:36.232Z,34.20
2022-12-18T10:18:39.791Z,34.65
2022-12-18T10:19:41.341Z,34.70
2022-12-18T10:20:42.965Z,34.08
2022-12-18T10:22:07.689Z,36.58
2022-12-18T10:23:31.776Z,33.38
2022-12-18T10:24:35.128Z,31.77
2022-12-18T10:25:25.675Z,31.37
2022-12-18T10:26:16.439Z,31.70
2022-12-18T10:27:15.708Z,34.10
2022-12-18T10:28:12.525Z,33.72
2022-12-18T10:29:05.259Z,33.42
2022-12-18T10:29:52.729Z,32.25
2022-12-18T10:30:41.940Z,32.05
2022-12-18T10:31:29.095Z,33.80
2022-12-18T10:32:18.698Z,32.42
2022-12-18T10:33:05.609Z,34.40
2022-12-18T10:33:54.903Z,33.45
2022-12-18T10:34:50.651Z,33.55
2022-12-18T10:35:42.614Z,32.60
2022-12-18T10:36:29.920Z,33.15
2022-12-18T10:37:23.107Z,32.97
2022-12-18T10:38:13.122Z,33.60
2022-12-18T10:39:23.708Z,30.98
2022-12-18T10:40:19.933Z,31.50
2022-12-18T10:41:27.509Z,31.00
2022-12-18T10:42:20.976Z,31.52
2022-12-18T10:43:15.699Z,31.23
2022-12-18T10:44:31.902Z,32.22
2022-12-18T10:45:18.924Z,30.27
2022-12-18T10:46:08.843Z,32.53
2022-12-18T10:46:59.759Z,31.92
2022-12-18T10:47:48.347Z,33.33
2022-12-18T10:48:56.210Z,32.63